This is the latest recevied weather packets stored in our database for station/object W5HKR. If no packets are shown the sender has not sent any weather packets the latest 10 day(s).
| Time | Temp. | Humidity | Pressure | Rain* | Wind** | Luminosity | Snow |
|---|---|---|---|---|---|---|---|
| 1777733298 | 17.78° C | 63% | 993.6 hPa | 0 mm | - | - | - |
| 1777732997 | 18.33° C | 91% | 990.6 hPa | 0 mm | - | - | - |
| 1777732699 | 18.33° C | 91% | 990.6 hPa | 0 mm | - | - | - |
| 1777732429 | 18.33° C | 91% | 990.6 hPa | 0 mm | - | - | - |
| 1777732398 | 16.67° C | 64% | 993.1 hPa | 0 mm | - | - | - |
| 1777732098 | 16.67° C | 64% | 993.4 hPa | 0 mm | - | - | - |
| 1777731798 | 18.33° C | 91% | 990.6 hPa | 0 mm | - | - | - |
| 1777731497 | 18.33° C | 91% | 990.6 hPa | 0 mm | - | - | - |
| 1777731350 | 18.33° C | 91% | 990.6 hPa | 0 mm | - | - | - |
| 1777731197 | 16.11° C | 68% | 993.3 hPa | 0 mm | - | - | - |
| 1777730898 | 16.11° C | 68% | 993.2 hPa | 0 mm | - | - | - |
| 1777730599 | 18.33° C | 91% | 990.6 hPa | 0 mm | - | - | - |
| 1777730300 | 18.33° C | 91% | 990.6 hPa | 0 mm | - | - | - |
| 1777730270 | 18.33° C | 91% | 990.6 hPa | 0 mm | - | - | - |
| 1777729997 | 15° C | 71% | 992.9 hPa | 0 mm | - | - | - |
| 1777729697 | 14.44° C | 76% | 992.8 hPa | 0 mm | - | - | - |
| 1777729399 | 13.89° C | 75% | 992.9 hPa | 0 mm | - | - | - |
| 1777729189 | 18.33° C | 91% | 990.6 hPa | 0 mm | - | - | - |
| 1777729099 | 13.89° C | 76% | 992.8 hPa | 0 mm | - | - | - |
| 1777728498 | 18.33° C | 91% | 990.6 hPa | 0 mm | - | - | - |
| 1777728199 | 18.33° C | 91% | 990.6 hPa | 0 mm | - | - | - |
| 1777728109 | 18.33° C | 91% | 990.6 hPa | 0 mm | - | - | - |
| 1777727598 | 18.33° C | 91% | 990.6 hPa | 0 mm | - | - | - |
| 1777727299 | 11.67° C | 86% | 992.3 hPa | 0 mm | - | - | - |
| 1777727028 | 11.67° C | 87% | 992.2 hPa | 0 mm | - | - | - |
* Rain latest hour (hover to see other rain measurements)
** Current wind speed in m/s (hover to see current wind gust speed)